sensor_id;sensor_type;location;lat;lon;timestamp;P1;durP1;ratioP1;P2;durP2;ratioP2
80776;SDS011;70169;51.262;6.336;2023-08-31T00:00:41;3.60;;;2.50;;
80776;SDS011;70169;51.262;6.336;2023-08-31T00:02:57;4.10;;;2.40;;
80776;SDS011;70169;51.262;6.336;2023-08-31T00:05:13;3.78;;;2.45;;
80776;SDS011;70169;51.262;6.336;2023-08-31T00:07:28;4.07;;;2.60;;
80776;SDS011;70169;51.262;6.336;2023-08-31T00:09:44;5.15;;;2.63;;
80776;SDS011;70169;51.262;6.336;2023-08-31T00:12:03;4.50;;;2.38;;
80776;SDS011;70169;51.262;6.336;2023-08-31T00:14:18;3.60;;;2.40;;
80776;SDS011;70169;51.262;6.336;2023-08-31T00:16:34;3.53;;;2.60;;
80776;SDS011;70169;51.262;6.336;2023-08-31T00:18:49;5.28;;;2.92;;
80776;SDS011;70169;51.262;6.336;2023-08-31T00:21:05;4.83;;;3.10;;
80776;SDS011;70169;51.262;6.336;2023-08-31T00:23:20;5.33;;;2.83;;
80776;SDS011;70169;51.262;6.336;2023-08-31T00:25:35;4.60;;;2.77;;
80776;SDS011;70169;51.262;6.336;2023-08-31T00:27:51;3.70;;;2.63;;
80776;SDS011;70169;51.262;6.336;2023-08-31T00:30:07;5.18;;;3.35;;
80776;SDS011;70169;51.262;6.336;2023-08-31T00:32:23;3.97;;;2.75;;
80776;SDS011;70169;51.262;6.336;2023-08-31T00:34:39;6.13;;;2.97;;
80776;SDS011;70169;51.262;6.336;2023-08-31T00:36:54;4.07;;;2.77;;
80776;SDS011;70169;51.262;6.336;2023-08-31T00:39:09;4.10;;;2.90;;
80776;SDS011;70169;51.262;6.336;2023-08-31T00:41:25;4.22;;;2.58;;
80776;SDS011;70169;51.262;6.336;2023-08-31T00:43:41;5.63;;;2.83;;
80776;SDS011;70169;51.262;6.336;2023-08-31T00:45:57;5.15;;;2.90;;
80776;SDS011;70169;51.262;6.336;2023-08-31T00:48:14;4.30;;;2.85;;
80776;SDS011;70169;51.262;6.336;2023-08-31T00:50:31;4.97;;;2.72;;
80776;SDS011;70169;51.262;6.336;2023-08-31T00:52:59;3.05;;;2.40;;
80776;SDS011;70169;51.262;6.336;2023-08-31T00:55:14;3.72;;;2.72;;
80776;SDS011;70169;51.262;6.336;2023-08-31T00:57:32;3.83;;;2.70;;
80776;SDS011;70169;51.262;6.336;2023-08-31T00:59:48;3.53;;;2.63;;
80776;SDS011;70169;51.262;6.336;2023-08-31T01:02:08;3.53;;;2.90;;
80776;SDS011;70169;51.262;6.336;2023-08-31T01:04:33;3.63;;;2.50;;
80776;SDS011;70169;51.262;6.336;2023-08-31T01:07:00;4.22;;;2.40;;
80776;SDS011;70169;51.262;6.336;2023-08-31T01:09:39;4.72;;;3.13;;
80776;SDS011;70169;51.262;6.336;2023-08-31T01:14:23;3.67;;;2.58;;
80776;SDS011;70169;51.262;6.336;2023-08-31T01:16:42;4.38;;;2.50;;
80776;SDS011;70169;51.262;6.336;2023-08-31T01:19:01;3.47;;;2.47;;
80776;SDS011;70169;51.262;6.336;2023-08-31T01:21:27;4.35;;;3.25;;
80776;SDS011;70169;51.262;6.336;2023-08-31T01:23:49;5.07;;;2.65;;
80776;SDS011;70169;51.262;6.336;2023-08-31T01:26:08;11.50;;;3.20;;
80776;SDS011;70169;51.262;6.336;2023-08-31T01:28:23;4.70;;;2.70;;
80776;SDS011;70169;51.262;6.336;2023-08-31T01:30:39;3.90;;;2.50;;
80776;SDS011;70169;51.262;6.336;2023-08-31T01:32:55;5.25;;;3.00;;
80776;SDS011;70169;51.262;6.336;2023-08-31T01:35:10;4.18;;;2.92;;
80776;SDS011;70169;51.262;6.336;2023-08-31T01:37:40;3.97;;;2.92;;
80776;SDS011;70169;51.262;6.336;2023-08-31T01:40:06;4.75;;;2.88;;
80776;SDS011;70169;51.262;6.336;2023-08-31T01:42:38;5.00;;;2.80;;
80776;SDS011;70169;51.262;6.336;2023-08-31T01:44:57;4.47;;;2.72;;
80776;SDS011;70169;51.262;6.336;2023-08-31T01:47:15;4.57;;;2.60;;
80776;SDS011;70169;51.262;6.336;2023-08-31T01:49:35;5.30;;;2.70;;
80776;SDS011;70169;51.262;6.336;2023-08-31T01:51:54;4.15;;;2.67;;
80776;SDS011;70169;51.262;6.336;2023-08-31T01:54:09;3.63;;;2.63;;
80776;SDS011;70169;51.262;6.336;2023-08-31T01:56:24;4.32;;;2.63;;
80776;SDS011;70169;51.262;6.336;2023-08-31T01:58:40;3.60;;;2.37;;
80776;SDS011;70169;51.262;6.336;2023-08-31T02:00:55;5.43;;;2.47;;
80776;SDS011;70169;51.262;6.336;2023-08-31T02:03:11;3.85;;;2.40;;
80776;SDS011;70169;51.262;6.336;2023-08-31T02:05:27;4.93;;;2.20;;
80776;SDS011;70169;51.262;6.336;2023-08-31T02:07:42;3.77;;;2.20;;
80776;SDS011;70169;51.262;6.336;2023-08-31T02:09:57;4.10;;;2.40;;
80776;SDS011;70169;51.262;6.336;2023-08-31T02:12:13;3.47;;;2.00;;
80776;SDS011;70169;51.262;6.336;2023-08-31T02:14:29;4.00;;;2.37;;
80776;SDS011;70169;51.262;6.336;2023-08-31T02:16:45;3.92;;;2.42;;
80776;SDS011;70169;51.262;6.336;2023-08-31T02:19:00;3.60;;;2.20;;
80776;SDS011;70169;51.262;6.336;2023-08-31T02:21:15;3.83;;;2.20;;
80776;SDS011;70169;51.262;6.336;2023-08-31T02:23:31;3.40;;;2.00;;
80776;SDS011;70169;51.262;6.336;2023-08-31T02:25:46;2.73;;;1.73;;
80776;SDS011;70169;51.262;6.336;2023-08-31T02:28:01;3.27;;;2.10;;
80776;SDS011;70169;51.262;6.336;2023-08-31T02:30:17;3.05;;;2.30;;
80776;SDS011;70169;51.262;6.336;2023-08-31T02:32:32;3.57;;;2.37;;
80776;SDS011;70169;51.262;6.336;2023-08-31T02:34:48;3.03;;;2.00;;
80776;SDS011;70169;51.262;6.336;2023-08-31T02:37:04;3.00;;;1.90;;
80776;SDS011;70169;51.262;6.336;2023-08-31T02:39:19;3.47;;;2.05;;
80776;SDS011;70169;51.262;6.336;2023-08-31T02:41:34;3.33;;;1.92;;
80776;SDS011;70169;51.262;6.336;2023-08-31T02:43:50;2.87;;;2.23;;
80776;SDS011;70169;51.262;6.336;2023-08-31T02:46:06;3.05;;;1.90;;
80776;SDS011;70169;51.262;6.336;2023-08-31T02:48:22;2.43;;;1.73;;
80776;SDS011;70169;51.262;6.336;2023-08-31T02:50:37;2.53;;;1.80;;
80776;SDS011;70169;51.262;6.336;2023-08-31T02:52:53;2.80;;;2.07;;
80776;SDS011;70169;51.262;6.336;2023-08-31T02:55:08;3.43;;;2.00;;
80776;SDS011;70169;51.262;6.336;2023-08-31T02:57:23;2.87;;;1.80;;
80776;SDS011;70169;51.262;6.336;2023-08-31T02:59:39;3.00;;;2.23;;
80776;SDS011;70169;51.262;6.336;2023-08-31T03:01:54;3.17;;;1.88;;
80776;SDS011;70169;51.262;6.336;2023-08-31T03:04:10;3.37;;;2.43;;
80776;SDS011;70169;51.262;6.336;2023-08-31T03:06:26;2.60;;;1.90;;
80776;SDS011;70169;51.262;6.336;2023-08-31T03:08:41;2.92;;;2.00;;
80776;SDS011;70169;51.262;6.336;2023-08-31T03:10:56;3.25;;;2.15;;
80776;SDS011;70169;51.262;6.336;2023-08-31T03:13:12;3.47;;;2.22;;
80776;SDS011;70169;51.262;6.336;2023-08-31T03:15:27;3.03;;;2.17;;
80776;SDS011;70169;51.262;6.336;2023-08-31T03:17:43;3.43;;;1.77;;
80776;SDS011;70169;51.262;6.336;2023-08-31T03:19:58;2.97;;;1.90;;
80776;SDS011;70169;51.262;6.336;2023-08-31T03:22:13;3.27;;;1.73;;
80776;SDS011;70169;51.262;6.336;2023-08-31T03:24:28;2.77;;;1.80;;
80776;SDS011;70169;51.262;6.336;2023-08-31T03:26:44;3.87;;;2.60;;
80776;SDS011;70169;51.262;6.336;2023-08-31T03:28:59;3.53;;;2.17;;
80776;SDS011;70169;51.262;6.336;2023-08-31T03:31:15;2.72;;;2.00;;
80776;SDS011;70169;51.262;6.336;2023-08-31T03:33:30;4.67;;;1.63;;
80776;SDS011;70169;51.262;6.336;2023-08-31T03:35:46;4.15;;;2.40;;
80776;SDS011;70169;51.262;6.336;2023-08-31T03:38:01;2.90;;;2.03;;
80776;SDS011;70169;51.262;6.336;2023-08-31T03:40:16;3.05;;;2.33;;
80776;SDS011;70169;51.262;6.336;2023-08-31T03:42:33;3.40;;;2.22;;
80776;SDS011;70169;51.262;6.336;2023-08-31T03:44:49;4.55;;;2.70;;
80776;SDS011;70169;51.262;6.336;2023-08-31T03:47:04;3.87;;;2.73;;
80776;SDS011;70169;51.262;6.336;2023-08-31T03:49:20;3.22;;;2.35;;
80776;SDS011;70169;51.262;6.336;2023-08-31T03:51:35;3.13;;;2.30;;
80776;SDS011;70169;51.262;6.336;2023-08-31T03:53:50;3.17;;;2.10;;
80776;SDS011;70169;51.262;6.336;2023-08-31T03:56:06;4.53;;;2.67;;
80776;SDS011;70169;51.262;6.336;2023-08-31T03:58:21;3.33;;;2.10;;
80776;SDS011;70169;51.262;6.336;2023-08-31T04:00:37;3.57;;;2.17;;
80776;SDS011;70169;51.262;6.336;2023-08-31T04:02:53;2.58;;;1.90;;
80776;SDS011;70169;51.262;6.336;2023-08-31T04:05:09;2.90;;;2.17;;
80776;SDS011;70169;51.262;6.336;2023-08-31T04:07:24;2.87;;;2.13;;
80776;SDS011;70169;51.262;6.336;2023-08-31T04:09:39;3.10;;;2.10;;
80776;SDS011;70169;51.262;6.336;2023-08-31T04:11:55;3.77;;;2.47;;
80776;SDS011;70169;51.262;6.336;2023-08-31T04:14:10;3.95;;;2.30;;
80776;SDS011;70169;51.262;6.336;2023-08-31T04:16:25;3.93;;;2.40;;
80776;SDS011;70169;51.262;6.336;2023-08-31T04:18:41;3.90;;;2.40;;
80776;SDS011;70169;51.262;6.336;2023-08-31T04:20:56;3.30;;;2.47;;
80776;SDS011;70169;51.262;6.336;2023-08-31T04:23:14;2.90;;;2.45;;
80776;SDS011;70169;51.262;6.336;2023-08-31T04:25:29;3.80;;;2.40;;
80776;SDS011;70169;51.262;6.336;2023-08-31T04:27:46;4.78;;;2.63;;
80776;SDS011;70169;51.262;6.336;2023-08-31T04:30:01;3.30;;;2.30;;
80776;SDS011;70169;51.262;6.336;2023-08-31T04:32:17;3.20;;;2.42;;
80776;SDS011;70169;51.262;6.336;2023-08-31T04:34:32;4.37;;;3.13;;
80776;SDS011;70169;51.262;6.336;2023-08-31T04:36:48;3.93;;;2.77;;
80776;SDS011;70169;51.262;6.336;2023-08-31T04:39:03;4.47;;;2.50;;
80776;SDS011;70169;51.262;6.336;2023-08-31T04:41:19;5.15;;;2.97;;
80776;SDS011;70169;51.262;6.336;2023-08-31T04:43:35;4.50;;;2.40;;
80776;SDS011;70169;51.262;6.336;2023-08-31T04:45:53;4.77;;;2.90;;
80776;SDS011;70169;51.262;6.336;2023-08-31T04:48:09;3.42;;;2.47;;
80776;SDS011;70169;51.262;6.336;2023-08-31T04:50:25;4.20;;;2.60;;
80776;SDS011;70169;51.262;6.336;2023-08-31T04:52:40;4.03;;;2.35;;
80776;SDS011;70169;51.262;6.336;2023-08-31T04:54:56;3.20;;;2.20;;
80776;SDS011;70169;51.262;6.336;2023-08-31T04:57:11;4.57;;;2.83;;
80776;SDS011;70169;51.262;6.336;2023-08-31T04:59:26;4.20;;;3.30;;
80776;SDS011;70169;51.262;6.336;2023-08-31T05:01:42;5.23;;;2.50;;
80776;SDS011;70169;51.262;6.336;2023-08-31T05:03:57;5.70;;;3.53;;
80776;SDS011;70169;51.262;6.336;2023-08-31T05:06:12;5.10;;;3.13;;
80776;SDS011;70169;51.262;6.336;2023-08-31T05:08:28;4.25;;;2.85;;
80776;SDS011;70169;51.262;6.336;2023-08-31T05:10:44;4.65;;;2.80;;
80776;SDS011;70169;51.262;6.336;2023-08-31T05:13:00;3.65;;;2.80;;
80776;SDS011;70169;51.262;6.336;2023-08-31T05:15:15;3.50;;;2.73;;
80776;SDS011;70169;51.262;6.336;2023-08-31T05:17:31;5.25;;;2.70;;
80776;SDS011;70169;51.262;6.336;2023-08-31T05:19:46;4.88;;;3.40;;
80776;SDS011;70169;51.262;6.336;2023-08-31T05:22:02;5.07;;;3.40;;
80776;SDS011;70169;51.262;6.336;2023-08-31T05:24:17;4.65;;;3.60;;
80776;SDS011;70169;51.262;6.336;2023-08-31T05:26:32;7.03;;;3.90;;
80776;SDS011;70169;51.262;6.336;2023-08-31T05:28:48;5.78;;;3.50;;
80776;SDS011;70169;51.262;6.336;2023-08-31T05:31:03;6.07;;;3.70;;
80776;SDS011;70169;51.262;6.336;2023-08-31T05:33:19;4.63;;;3.43;;
80776;SDS011;70169;51.262;6.336;2023-08-31T05:35:40;4.88;;;3.17;;
80776;SDS011;70169;51.262;6.336;2023-08-31T05:37:56;4.07;;;3.10;;
80776;SDS011;70169;51.262;6.336;2023-08-31T05:40:11;3.70;;;2.97;;
80776;SDS011;70169;51.262;6.336;2023-08-31T05:42:27;4.18;;;3.22;;
80776;SDS011;70169;51.262;6.336;2023-08-31T05:44:42;5.83;;;3.13;;
80776;SDS011;70169;51.262;6.336;2023-08-31T05:46:58;4.70;;;3.13;;
80776;SDS011;70169;51.262;6.336;2023-08-31T05:49:13;5.40;;;3.63;;
80776;SDS011;70169;51.262;6.336;2023-08-31T05:51:28;4.67;;;3.40;;
80776;SDS011;70169;51.262;6.336;2023-08-31T05:53:44;4.77;;;2.67;;
80776;SDS011;70169;51.262;6.336;2023-08-31T05:55:59;4.88;;;3.95;;
80776;SDS011;70169;51.262;6.336;2023-08-31T05:58:22;5.28;;;3.95;;
80776;SDS011;70169;51.262;6.336;2023-08-31T06:00:38;4.45;;;3.60;;
80776;SDS011;70169;51.262;6.336;2023-08-31T06:02:53;8.00;;;3.58;;
80776;SDS011;70169;51.262;6.336;2023-08-31T06:05:09;7.70;;;4.07;;
80776;SDS011;70169;51.262;6.336;2023-08-31T06:07:24;5.15;;;3.80;;
80776;SDS011;70169;51.262;6.336;2023-08-31T06:09:40;5.45;;;3.55;;
80776;SDS011;70169;51.262;6.336;2023-08-31T06:11:55;4.70;;;3.47;;
80776;SDS011;70169;51.262;6.336;2023-08-31T06:14:11;5.90;;;4.27;;
80776;SDS011;70169;51.262;6.336;2023-08-31T06:16:26;5.38;;;3.70;;
80776;SDS011;70169;51.262;6.336;2023-08-31T06:18:41;5.63;;;3.87;;
80776;SDS011;70169;51.262;6.336;2023-08-31T06:20:57;7.10;;;4.38;;
80776;SDS011;70169;51.262;6.336;2023-08-31T06:23:12;6.30;;;4.10;;
80776;SDS011;70169;51.262;6.336;2023-08-31T06:25:28;4.93;;;3.47;;
80776;SDS011;70169;51.262;6.336;2023-08-31T06:27:43;6.57;;;3.67;;
80776;SDS011;70169;51.262;6.336;2023-08-31T06:29:59;5.53;;;4.05;;
80776;SDS011;70169;51.262;6.336;2023-08-31T06:32:15;6.80;;;5.00;;
80776;SDS011;70169;51.262;6.336;2023-08-31T06:34:31;5.68;;;3.72;;
80776;SDS011;70169;51.262;6.336;2023-08-31T06:36:47;5.78;;;4.18;;
80776;SDS011;70169;51.262;6.336;2023-08-31T06:39:02;7.27;;;4.03;;
80776;SDS011;70169;51.262;6.336;2023-08-31T06:41:19;7.53;;;5.13;;
80776;SDS011;70169;51.262;6.336;2023-08-31T06:43:34;8.47;;;4.70;;
80776;SDS011;70169;51.262;6.336;2023-08-31T06:45:50;6.00;;;3.77;;
80776;SDS011;70169;51.262;6.336;2023-08-31T06:48:06;5.05;;;3.83;;
80776;SDS011;70169;51.262;6.336;2023-08-31T06:50:21;4.90;;;3.60;;
80776;SDS011;70169;51.262;6.336;2023-08-31T06:52:36;5.73;;;3.43;;
80776;SDS011;70169;51.262;6.336;2023-08-31T06:54:52;7.27;;;4.03;;
80776;SDS011;70169;51.262;6.336;2023-08-31T06:57:11;7.65;;;4.13;;
80776;SDS011;70169;51.262;6.336;2023-08-31T06:59:26;5.43;;;3.67;;
80776;SDS011;70169;51.262;6.336;2023-08-31T07:01:42;6.13;;;3.90;;
80776;SDS011;70169;51.262;6.336;2023-08-31T07:03:57;6.23;;;4.10;;
80776;SDS011;70169;51.262;6.336;2023-08-31T07:06:12;5.20;;;3.83;;
80776;SDS011;70169;51.262;6.336;2023-08-31T07:08:28;5.67;;;3.70;;
80776;SDS011;70169;51.262;6.336;2023-08-31T07:10:43;6.20;;;3.23;;
80776;SDS011;70169;51.262;6.336;2023-08-31T07:12:58;5.97;;;4.27;;
80776;SDS011;70169;51.262;6.336;2023-08-31T07:15:14;6.70;;;4.20;;
80776;SDS011;70169;51.262;6.336;2023-08-31T07:17:29;5.15;;;3.83;;
80776;SDS011;70169;51.262;6.336;2023-08-31T07:19:44;7.33;;;4.33;;
80776;SDS011;70169;51.262;6.336;2023-08-31T07:22:00;6.57;;;4.10;;
80776;SDS011;70169;51.262;6.336;2023-08-31T07:24:15;6.55;;;3.85;;
80776;SDS011;70169;51.262;6.336;2023-08-31T07:26:30;6.80;;;4.60;;
80776;SDS011;70169;51.262;6.336;2023-08-31T07:28:46;8.47;;;4.10;;
80776;SDS011;70169;51.262;6.336;2023-08-31T07:33:51;5.07;;;3.05;;
80776;SDS011;70169;51.262;6.336;2023-08-31T07:36:06;8.17;;;4.47;;
80776;SDS011;70169;51.262;6.336;2023-08-31T07:38:21;8.73;;;4.30;;
80776;SDS011;70169;51.262;6.336;2023-08-31T07:40:37;6.68;;;4.28;;
80776;SDS011;70169;51.262;6.336;2023-08-31T07:42:52;5.90;;;3.90;;
80776;SDS011;70169;51.262;6.336;2023-08-31T07:45:07;6.33;;;3.90;;
80776;SDS011;70169;51.262;6.336;2023-08-31T07:47:23;8.45;;;4.20;;
80776;SDS011;70169;51.262;6.336;2023-08-31T07:49:39;7.88;;;4.88;;
80776;SDS011;70169;51.262;6.336;2023-08-31T07:51:54;6.50;;;4.50;;
80776;SDS011;70169;51.262;6.336;2023-08-31T07:54:09;6.60;;;4.37;;
80776;SDS011;70169;51.262;6.336;2023-08-31T07:56:25;8.43;;;4.53;;
80776;SDS011;70169;51.262;6.336;2023-08-31T07:58:40;8.90;;;5.00;;
80776;SDS011;70169;51.262;6.336;2023-08-31T08:00:55;6.27;;;4.87;;
80776;SDS011;70169;51.262;6.336;2023-08-31T08:03:11;8.05;;;4.25;;
80776;SDS011;70169;51.262;6.336;2023-08-31T08:05:27;8.88;;;4.72;;
80776;SDS011;70169;51.262;6.336;2023-08-31T08:07:42;8.40;;;4.88;;
80776;SDS011;70169;51.262;6.336;2023-08-31T08:09:58;7.10;;;4.50;;
80776;SDS011;70169;51.262;6.336;2023-08-31T08:12:14;5.70;;;3.95;;
80776;SDS011;70169;51.262;6.336;2023-08-31T08:14:29;7.50;;;4.10;;
80776;SDS011;70169;51.262;6.336;2023-08-31T08:16:45;8.40;;;4.17;;
80776;SDS011;70169;51.262;6.336;2023-08-31T08:19:00;5.88;;;3.70;;
80776;SDS011;70169;51.262;6.336;2023-08-31T08:21:16;6.20;;;3.78;;
80776;SDS011;70169;51.262;6.336;2023-08-31T08:23:31;6.60;;;3.53;;
80776;SDS011;70169;51.262;6.336;2023-08-31T08:25:46;7.73;;;4.03;;
80776;SDS011;70169;51.262;6.336;2023-08-31T08:28:02;7.47;;;4.10;;
80776;SDS011;70169;51.262;6.336;2023-08-31T08:30:18;5.55;;;3.67;;
80776;SDS011;70169;51.262;6.336;2023-08-31T08:32:34;6.57;;;3.30;;
80776;SDS011;70169;51.262;6.336;2023-08-31T08:34:50;3.97;;;3.42;;
80776;SDS011;70169;51.262;6.336;2023-08-31T08:37:06;5.30;;;3.85;;
80776;SDS011;70169;51.262;6.336;2023-08-31T08:39:21;4.87;;;3.17;;
80776;SDS011;70169;51.262;6.336;2023-08-31T08:41:36;6.05;;;3.35;;
80776;SDS011;70169;51.262;6.336;2023-08-31T08:43:53;6.18;;;3.60;;
80776;SDS011;70169;51.262;6.336;2023-08-31T08:46:09;5.47;;;3.40;;
80776;SDS011;70169;51.262;6.336;2023-08-31T08:48:25;5.82;;;3.75;;
80776;SDS011;70169;51.262;6.336;2023-08-31T08:50:40;7.20;;;3.58;;
80776;SDS011;70169;51.262;6.336;2023-08-31T08:52:56;4.15;;;2.90;;
80776;SDS011;70169;51.262;6.336;2023-08-31T08:55:12;5.57;;;3.55;;
80776;SDS011;70169;51.262;6.336;2023-08-31T08:57:28;5.38;;;3.03;;
80776;SDS011;70169;51.262;6.336;2023-08-31T08:59:45;6.97;;;3.90;;
80776;SDS011;70169;51.262;6.336;2023-08-31T09:02:00;5.20;;;3.20;;
80776;SDS011;70169;51.262;6.336;2023-08-31T09:04:16;6.47;;;3.30;;
80776;SDS011;70169;51.262;6.336;2023-08-31T09:06:32;4.47;;;3.00;;
80776;SDS011;70169;51.262;6.336;2023-08-31T09:08:54;6.25;;;3.58;;
80776;SDS011;70169;51.262;6.336;2023-08-31T09:11:19;5.25;;;3.58;;
80776;SDS011;70169;51.262;6.336;2023-08-31T09:13:37;5.18;;;3.03;;
80776;SDS011;70169;51.262;6.336;2023-08-31T09:15:52;6.97;;;4.13;;
80776;SDS011;70169;51.262;6.336;2023-08-31T09:18:09;5.80;;;3.30;;
80776;SDS011;70169;51.262;6.336;2023-08-31T09:20:46;6.47;;;3.38;;
80776;SDS011;70169;51.262;6.336;2023-08-31T09:23:01;9.45;;;3.70;;
80776;SDS011;70169;51.262;6.336;2023-08-31T09:25:17;5.97;;;3.20;;
80776;SDS011;70169;51.262;6.336;2023-08-31T09:27:38;8.48;;;3.90;;
80776;SDS011;70169;51.262;6.336;2023-08-31T09:29:54;5.28;;;3.25;;
80776;SDS011;70169;51.262;6.336;2023-08-31T09:32:10;9.10;;;3.67;;
80776;SDS011;70169;51.262;6.336;2023-08-31T09:34:34;4.20;;;3.03;;
80776;SDS011;70169;51.262;6.336;2023-08-31T09:36:49;6.63;;;3.35;;
80776;SDS011;70169;51.262;6.336;2023-08-31T09:39:05;5.53;;;3.17;;
80776;SDS011;70169;51.262;6.336;2023-08-31T09:41:21;6.15;;;3.03;;
80776;SDS011;70169;51.262;6.336;2023-08-31T09:43:36;6.20;;;3.20;;
80776;SDS011;70169;51.262;6.336;2023-08-31T09:45:52;5.10;;;2.87;;
80776;SDS011;70169;51.262;6.336;2023-08-31T09:48:08;6.82;;;3.10;;
80776;SDS011;70169;51.262;6.336;2023-08-31T09:50:30;6.78;;;3.40;;
80776;SDS011;70169;51.262;6.336;2023-08-31T09:52:46;6.95;;;3.53;;
80776;SDS011;70169;51.262;6.336;2023-08-31T09:55:05;7.03;;;3.08;;
80776;SDS011;70169;51.262;6.336;2023-08-31T09:57:21;7.18;;;3.38;;
80776;SDS011;70169;51.262;6.336;2023-08-31T09:59:38;4.35;;;2.90;;
80776;SDS011;70169;51.262;6.336;2023-08-31T10:01:54;7.45;;;3.22;;
80776;SDS011;70169;51.262;6.336;2023-08-31T10:06:27;6.07;;;3.15;;
80776;SDS011;70169;51.262;6.336;2023-08-31T10:08:44;5.65;;;3.30;;
80776;SDS011;70169;51.262;6.336;2023-08-31T10:10:59;4.93;;;2.87;;
80776;SDS011;70169;51.262;6.336;2023-08-31T10:13:18;6.18;;;2.90;;
80776;SDS011;70169;51.262;6.336;2023-08-31T10:15:36;6.65;;;3.25;;
80776;SDS011;70169;51.262;6.336;2023-08-31T10:17:51;4.22;;;2.88;;
80776;SDS011;70169;51.262;6.336;2023-08-31T10:20:07;5.85;;;3.22;;
80776;SDS011;70169;51.262;6.336;2023-08-31T10:22:24;4.90;;;3.35;;
80776;SDS011;70169;51.262;6.336;2023-08-31T10:27:19;6.68;;;3.08;;
80776;SDS011;70169;51.262;6.336;2023-08-31T10:29:34;5.75;;;3.05;;
80776;SDS011;70169;51.262;6.336;2023-08-31T10:31:50;5.03;;;2.85;;
80776;SDS011;70169;51.262;6.336;2023-08-31T10:34:05;7.83;;;2.83;;
80776;SDS011;70169;51.262;6.336;2023-08-31T10:36:41;7.63;;;3.72;;
80776;SDS011;70169;51.262;6.336;2023-08-31T10:39:00;5.07;;;3.30;;
80776;SDS011;70169;51.262;6.336;2023-08-31T10:41:19;6.32;;;3.38;;
80776;SDS011;70169;51.262;6.336;2023-08-31T10:46:14;4.05;;;2.35;;
80776;SDS011;70169;51.262;6.336;2023-08-31T10:49:35;4.53;;;2.03;;
80776;SDS011;70169;51.262;6.336;2023-08-31T10:51:29;4.80;;;2.25;;
80776;SDS011;70169;51.262;6.336;2023-08-31T10:53:46;4.30;;;2.67;;
80776;SDS011;70169;51.262;6.336;2023-08-31T10:56:01;7.35;;;2.72;;
80776;SDS011;70169;51.262;6.336;2023-08-31T10:58:17;5.50;;;2.40;;
80776;SDS011;70169;51.262;6.336;2023-08-31T11:00:51;3.63;;;2.07;;
80776;SDS011;70169;51.262;6.336;2023-08-31T11:03:08;5.60;;;2.67;;
80776;SDS011;70169;51.262;6.336;2023-08-31T11:05:27;5.93;;;3.72;;
80776;SDS011;70169;51.262;6.336;2023-08-31T11:07:46;6.40;;;3.07;;
80776;SDS011;70169;51.262;6.336;2023-08-31T11:10:06;6.10;;;2.35;;
80776;SDS011;70169;51.262;6.336;2023-08-31T11:12:28;5.45;;;2.97;;
80776;SDS011;70169;51.262;6.336;2023-08-31T11:14:43;4.70;;;2.30;;
80776;SDS011;70169;51.262;6.336;2023-08-31T11:16:59;5.97;;;2.67;;
80776;SDS011;70169;51.262;6.336;2023-08-31T11:19:15;3.67;;;2.47;;
80776;SDS011;70169;51.262;6.336;2023-08-31T11:21:31;4.40;;;2.53;;
80776;SDS011;70169;51.262;6.336;2023-08-31T11:23:47;5.75;;;2.65;;
80776;SDS011;70169;51.262;6.336;2023-08-31T11:26:03;4.90;;;3.28;;
80776;SDS011;70169;51.262;6.336;2023-08-31T11:28:19;5.90;;;3.33;;
80776;SDS011;70169;51.262;6.336;2023-08-31T11:30:36;7.88;;;2.95;;
80776;SDS011;70169;51.262;6.336;2023-08-31T11:32:51;6.38;;;2.92;;
80776;SDS011;70169;51.262;6.336;2023-08-31T11:35:08;6.47;;;2.83;;
80776;SDS011;70169;51.262;6.336;2023-08-31T11:37:23;5.20;;;2.87;;
80776;SDS011;70169;51.262;6.336;2023-08-31T11:39:38;4.55;;;2.50;;
80776;SDS011;70169;51.262;6.336;2023-08-31T11:41:55;3.55;;;2.58;;
80776;SDS011;70169;51.262;6.336;2023-08-31T11:44:11;5.30;;;2.55;;
80776;SDS011;70169;51.262;6.336;2023-08-31T11:46:28;5.43;;;2.72;;
80776;SDS011;70169;51.262;6.336;2023-08-31T11:48:44;6.00;;;3.17;;
80776;SDS011;70169;51.262;6.336;2023-08-31T11:51:00;5.80;;;2.90;;
80776;SDS011;70169;51.262;6.336;2023-08-31T11:53:16;5.15;;;2.97;;
80776;SDS011;70169;51.262;6.336;2023-08-31T11:55:31;7.10;;;3.77;;
80776;SDS011;70169;51.262;6.336;2023-08-31T11:57:51;4.38;;;2.55;;
80776;SDS011;70169;51.262;6.336;2023-08-31T12:00:09;6.18;;;2.90;;
80776;SDS011;70169;51.262;6.336;2023-08-31T12:04:41;4.53;;;2.27;;
80776;SDS011;70169;51.262;6.336;2023-08-31T12:07:01;3.63;;;2.25;;
80776;SDS011;70169;51.262;6.336;2023-08-31T12:09:21;4.13;;;2.65;;
80776;SDS011;70169;51.262;6.336;2023-08-31T12:11:36;5.83;;;2.60;;
80776;SDS011;70169;51.262;6.336;2023-08-31T12:13:52;6.20;;;3.22;;
80776;SDS011;70169;51.262;6.336;2023-08-31T12:16:13;9.63;;;2.92;;
80776;SDS011;70169;51.262;6.336;2023-08-31T12:18:29;3.88;;;2.90;;
80776;SDS011;70169;51.262;6.336;2023-08-31T12:20:50;5.30;;;3.03;;
80776;SDS011;70169;51.262;6.336;2023-08-31T12:23:07;4.88;;;2.78;;
80776;SDS011;70169;51.262;6.336;2023-08-31T12:25:23;4.82;;;2.92;;
80776;SDS011;70169;51.262;6.336;2023-08-31T12:27:38;5.22;;;2.45;;
80776;SDS011;70169;51.262;6.336;2023-08-31T12:29:53;6.30;;;2.83;;
80776;SDS011;70169;51.262;6.336;2023-08-31T12:32:10;4.50;;;2.75;;
80776;SDS011;70169;51.262;6.336;2023-08-31T12:34:25;4.47;;;2.53;;
80776;SDS011;70169;51.262;6.336;2023-08-31T12:36:41;5.15;;;2.80;;
80776;SDS011;70169;51.262;6.336;2023-08-31T12:38:56;6.43;;;2.70;;
80776;SDS011;70169;51.262;6.336;2023-08-31T12:41:13;4.57;;;2.53;;
80776;SDS011;70169;51.262;6.336;2023-08-31T12:43:29;4.13;;;2.47;;
80776;SDS011;70169;51.262;6.336;2023-08-31T12:45:44;5.32;;;2.80;;
80776;SDS011;70169;51.262;6.336;2023-08-31T12:47:59;3.87;;;2.47;;
80776;SDS011;70169;51.262;6.336;2023-08-31T12:50:15;5.15;;;2.35;;
80776;SDS011;70169;51.262;6.336;2023-08-31T12:52:30;4.05;;;2.40;;
80776;SDS011;70169;51.262;6.336;2023-08-31T12:54:45;4.50;;;2.73;;
80776;SDS011;70169;51.262;6.336;2023-08-31T12:57:01;5.15;;;2.10;;
80776;SDS011;70169;51.262;6.336;2023-08-31T12:59:17;4.60;;;2.42;;
80776;SDS011;70169;51.262;6.336;2023-08-31T13:01:33;3.80;;;2.80;;
80776;SDS011;70169;51.262;6.336;2023-08-31T13:03:48;4.07;;;2.42;;
80776;SDS011;70169;51.262;6.336;2023-08-31T13:06:03;3.53;;;2.07;;
80776;SDS011;70169;51.262;6.336;2023-08-31T13:08:19;4.40;;;2.20;;
80776;SDS011;70169;51.262;6.336;2023-08-31T13:10:34;5.00;;;2.67;;
80776;SDS011;70169;51.262;6.336;2023-08-31T13:12:50;6.80;;;2.65;;
80776;SDS011;70169;51.262;6.336;2023-08-31T13:15:05;7.93;;;3.20;;
80776;SDS011;70169;51.262;6.336;2023-08-31T13:17:22;6.70;;;2.90;;
80776;SDS011;70169;51.262;6.336;2023-08-31T13:19:41;4.32;;;2.50;;
80776;SDS011;70169;51.262;6.336;2023-08-31T13:21:56;6.17;;;2.80;;
80776;SDS011;70169;51.262;6.336;2023-08-31T13:24:12;5.47;;;2.50;;
80776;SDS011;70169;51.262;6.336;2023-08-31T13:26:27;5.80;;;2.50;;
80776;SDS011;70169;51.262;6.336;2023-08-31T13:28:43;5.00;;;2.33;;
80776;SDS011;70169;51.262;6.336;2023-08-31T13:30:58;3.80;;;2.38;;
80776;SDS011;70169;51.262;6.336;2023-08-31T13:33:15;4.80;;;2.35;;
80776;SDS011;70169;51.262;6.336;2023-08-31T13:35:30;4.33;;;2.20;;
80776;SDS011;70169;51.262;6.336;2023-08-31T13:37:46;3.60;;;2.10;;
80776;SDS011;70169;51.262;6.336;2023-08-31T13:40:01;4.70;;;2.30;;
80776;SDS011;70169;51.262;6.336;2023-08-31T13:42:20;4.40;;;2.28;;
80776;SDS011;70169;51.262;6.336;2023-08-31T13:44:36;4.20;;;2.40;;
80776;SDS011;70169;51.262;6.336;2023-08-31T13:46:51;2.78;;;1.52;;
80776;SDS011;70169;51.262;6.336;2023-08-31T13:49:06;4.07;;;2.03;;
80776;SDS011;70169;51.262;6.336;2023-08-31T13:51:22;3.90;;;2.27;;
80776;SDS011;70169;51.262;6.336;2023-08-31T13:53:37;3.13;;;2.03;;
80776;SDS011;70169;51.262;6.336;2023-08-31T13:55:52;4.60;;;2.08;;
80776;SDS011;70169;51.262;6.336;2023-08-31T13:58:08;4.27;;;2.70;;